NCAR-RAP Real-Time Weather Data

Output produced by METARs form (21 April 2018  09:45 UTC)
found at http://weather.rap.ucar.edu/surface/
 
Conditions at: KFMY observed 21 April 2018  08:53 UTC
Temperature: 21.1°C (70°F)
Dewpoint: 19.4°C (67°F) [RH = 90%]
Pressure (altimeter): 30.07 inches Hg (1018.4 mb)
[Sea-level pressure: 1018.5 mb]
Winds: from the E (80 degrees) at 6 MPH (5 knots; 2.6 m/s)
Visibility: 10 or more miles (16+ km)
Ceiling: at least 12,000 feet AGL
Clouds: sky clear below 12,000 feet AGL
Present Weather: automated observation with no human augmentation;
there may or may not be significant weather present at this time
KFMY 210853Z AUTO 08005KT 10SM CLR 21/19 A3007 RMK AO2 SLP185 T02110194 55001

Conditions at: KFMY observed 21 April 2018  07:53 UTC
Temperature: 21.1°C (70°F)
Dewpoint: 18.9°C (66°F) [RH = 87%]
Pressure (altimeter): 30.07 inches Hg (1018.4 mb)
[Sea-level pressure: 1018.3 mb]
Winds: from the E (80 degrees) at 7 MPH (6 knots; 3.1 m/s)
Visibility: 8 miles (13 km)
Ceiling: 6000 feet AGL
Clouds: broken clouds at 6000 feet AGL
Present Weather: automated observation with no human augmentation;
there may or may not be significant weather present at this time
KFMY 210753Z AUTO 08006KT 8SM BKN060 21/19 A3007 RMK AO2 SLP183 T02110189

Conditions at: KFMY observed 21 April 2018  06:53 UTC
Temperature: 21.7°C (71°F)
Dewpoint: 18.3°C (65°F) [RH = 81%]
Pressure (altimeter): 30.07 inches Hg (1018.4 mb)
[Sea-level pressure: 1018.3 mb]
Winds: from the E (90 degrees) at 6 MPH (5 knots; 2.6 m/s)
Visibility: 10 or more miles (16+ km)
Ceiling: at least 12,000 feet AGL
Clouds: scattered clouds at 6500 feet AGL
Present Weather: automated observation with no human augmentation;
there may or may not be significant weather present at this time
KFMY 210653Z AUTO 09005KT 10SM SCT065 22/18 A3007 RMK AO2 SLP183 T02170183

Conditions at: KFMY observed 21 April 2018  05:53 UTC
Temperature: 21.7°C (71°F)
Dewpoint: 17.8°C (64°F) [RH = 79%]
Pressure (altimeter): 30.07 inches Hg (1018.4 mb)
[Sea-level pressure: 1018.6 mb]
Winds: from the E (80 degrees) at 6 MPH (5 knots; 2.6 m/s)
Visibility: 10 or more miles (16+ km)
Ceiling: at least 12,000 feet AGL
Clouds: sky clear below 12,000 feet AGL
Present Weather: automated observation with no human augmentation;
there may or may not be significant weather present at this time
KFMY 210553Z AUTO 08005KT 10SM CLR 22/18 A3007 RMK AO2 SLP186 T02170178 10250 20211 58012

Conditions at: KFMY observed 21 April 2018  04:53 UTC
Temperature: 21.1°C (70°F)
Dewpoint: 17.2°C (63°F) [RH = 78%]
Pressure (altimeter): 30.09 inches Hg (1019.0 mb)
[Sea-level pressure: 1019.1 mb]
Winds: from the ENE (60 degrees) at 3 MPH (3 knots; 1.6 m/s)
Visibility: 10 or more miles (16+ km)
Ceiling: at least 12,000 feet AGL
Clouds: sky clear below 12,000 feet AGL
Present Weather: automated observation with no human augmentation;
there may or may not be significant weather present at this time
KFMY 210453Z AUTO 06003KT 10SM CLR 21/17 A3009 RMK AO2 SLP191 T02110172 403060189

Conditions at: KFMY observed 21 April 2018  03:53 UTC
Temperature: 22.8°C (73°F)
Dewpoint: 17.2°C (63°F) [RH = 71%]
Pressure (altimeter): 30.11 inches Hg (1019.7 mb)
[Sea-level pressure: 1019.7 mb]
Winds: calm
Visibility: 10 or more miles (16+ km)
Ceiling: at least 12,000 feet AGL
Clouds: sky clear below 12,000 feet AGL
Present Weather: automated observation with no human augmentation;
there may or may not be significant weather present at this time
KFMY 210353Z AUTO 00000KT 10SM CLR 23/17 A3011 RMK AO2 SLP197 T02280172

Conditions at: KFMY observed 21 April 2018  02:53 UTC
Temperature: 22.8°C (73°F)
Dewpoint: 18.3°C (65°F) [RH = 76%]
Pressure (altimeter): 30.11 inches Hg (1019.7 mb)
[Sea-level pressure: 1019.8 mb]
Winds: from the NNW (340 degrees) at 7 MPH (6 knots; 3.1 m/s)
Visibility: 10 or more miles (16+ km)
Ceiling: at least 12,000 feet AGL
Clouds: sky clear below 12,000 feet AGL
Present Weather: automated observation with no human augmentation;
there may or may not be significant weather present at this time
KFMY 210253Z AUTO 34006KT 10SM CLR 23/18 A3011 RMK AO2 SLP198 T02280183 51014

Conditions at: KFMY observed 21 April 2018  01:53 UTC
Temperature: 23.3°C (74°F)
Dewpoint: 18.3°C (65°F) [RH = 74%]
Pressure (altimeter): 30.10 inches Hg (1019.4 mb)
[Sea-level pressure: 1019.5 mb]
Winds: from the NW (320 degrees) at 8 MPH (7 knots; 3.6 m/s)
Visibility: 10 or more miles (16+ km)
Ceiling: at least 12,000 feet AGL
Clouds: sky clear below 12,000 feet AGL
Present Weather: automated observation with no human augmentation;
there may or may not be significant weather present at this time
KFMY 210153Z AUTO 32007KT 10SM CLR 23/18 A3010 RMK AO2 SLP195 T02330183

Conditions at: KFMY observed 21 April 2018  00:53 UTC
Temperature: 23.9°C (75°F)
Dewpoint: 17.8°C (64°F) [RH = 69%]
Pressure (altimeter): 30.08 inches Hg (1018.7 mb)
[Sea-level pressure: 1018.8 mb]
Winds: from the NW (310 degrees) at 8 MPH (7 knots; 3.6 m/s)
Visibility: 10 or more miles (16+ km)
Ceiling: at least 12,000 feet AGL
Clouds: sky clear below 12,000 feet AGL
Present Weather: no significant weather observed at this time
KFMY 210053Z 31007KT 10SM CLR 24/18 A3008 RMK AO2 SLP188 T02390178

Conditions at: KFMY observed 20 April 2018  23:53 UTC
Temperature: 25.0°C (77°F)
Dewpoint: 17.2°C (63°F) [RH = 62%]
Pressure (altimeter): 30.07 inches Hg (1018.4 mb)
[Sea-level pressure: 1018.3 mb]
Winds: from the WNW (290 degrees) at 8 MPH (7 knots; 3.6 m/s)
Visibility: 10 or more miles (16+ km)
Ceiling: at least 12,000 feet AGL
Clouds: sky clear below 12,000 feet AGL
Present Weather: no significant weather observed at this time
KFMY 202353Z 29007KT 10SM CLR 25/17 A3007 RMK AO2 SLP183 T02500172 10306 20250 53006

Conditions at: KFMY observed 20 April 2018  22:53 UTC
Temperature: 27.2°C (81°F)
Dewpoint: 15.6°C (60°F) [RH = 49%]
Pressure (altimeter): 30.07 inches Hg (1018.4 mb)
[Sea-level pressure: 1018.3 mb]
Winds: from the W (280 degrees) at 13 MPH (11 knots; 5.7 m/s)
Visibility: 10 or more miles (16+ km)
Ceiling: at least 12,000 feet AGL
Clouds: sky clear below 12,000 feet AGL
Present Weather: no significant weather observed at this time
KFMY 202253Z 28011KT 10SM CLR 27/16 A3007 RMK AO2 SLP183 T02720156

Conditions at: KFMY observed 20 April 2018  21:53 UTC
Temperature: 28.9°C (84°F)
Dewpoint: 16.7°C (62°F) [RH = 48%]
Pressure (altimeter): 30.05 inches Hg (1017.7 mb)
[Sea-level pressure: 1017.7 mb]
Winds: from the W (280 degrees) at 14 MPH (12 knots; 6.2 m/s)
Visibility: 10 or more miles (16+ km)
Ceiling: at least 12,000 feet AGL
Clouds: sky clear below 12,000 feet AGL
Present Weather: no significant weather observed at this time
KFMY 202153Z 28012KT 10SM CLR 29/17 A3005 RMK AO2 SLP177 T02890167

Conditions at: KFMY observed 20 April 2018  20:53 UTC
Temperature: 28.9°C (84°F)
Dewpoint: 16.7°C (62°F) [RH = 48%]
Pressure (altimeter): 30.05 inches Hg (1017.7 mb)
[Sea-level pressure: 1017.7 mb]
Winds: from the WNW (290 degrees) at 12 MPH (10 knots; 5.2 m/s)
Visibility: 10 or more miles (16+ km)
Ceiling: at least 12,000 feet AGL
Clouds: sky clear below 12,000 feet AGL
Present Weather: no significant weather observed at this time
KFMY 202053Z 29010KT 10SM CLR 29/17 A3005 RMK AO2 SLP177 T02890167 58016

Conditions at: KFMY observed 20 April 2018  19:53 UTC
Temperature: 29.4°C (85°F)
Dewpoint: 16.7°C (62°F) [RH = 46%]
Pressure (altimeter): 30.07 inches Hg (1018.4 mb)
[Sea-level pressure: 1018.4 mb]
Winds: from the WNW (300 degrees) at 13 MPH (11 knots; 5.7 m/s)
Visibility: 10 or more miles (16+ km)
Ceiling: at least 12,000 feet AGL
Clouds: sky clear below 12,000 feet AGL
Present Weather: no significant weather observed at this time
KFMY 201953Z 30011KT 10SM CLR 29/17 A3007 RMK AO2 SLP184 T02940167

Conditions at: KFMY observed 20 April 2018  18:53 UTC
Temperature: 30.0°C (86°F)
Dewpoint: 11.7°C (53°F) [RH = 32%]
Pressure (altimeter): 30.09 inches Hg (1019.0 mb)
[Sea-level pressure: 1019.0 mb]
Winds: from the W (270 degrees) at 8 MPH (7 knots; 3.6 m/s)
Visibility: 10 or more miles (16+ km)
Ceiling: at least 12,000 feet AGL
Clouds: sky clear below 12,000 feet AGL
Present Weather: no significant weather observed at this time
KFMY 201853Z 27007KT 10SM CLR 30/12 A3009 RMK AO2 SLP190 T03000117

Conditions at: KFMY observed 20 April 2018  17:53 UTC
Temperature: 28.9°C (84°F)
Dewpoint: 15.6°C (60°F) [RH = 45%]
Pressure (altimeter): 30.10 inches Hg (1019.4 mb)
[Sea-level pressure: 1019.3 mb]
Winds: variable direction winds at 6 MPH (5 knots; 2.6 m/s)
Visibility: 10 or more miles (16+ km)
Ceiling: at least 12,000 feet AGL
Clouds: sky clear below 12,000 feet AGL
Present Weather: no significant weather observed at this time
KFMY 201753Z VRB05KT 10SM CLR 29/16 A3010 RMK AO2 SLP193 T02890156 10289 20200 58015

Conditions at: KFMY observed 20 April 2018  16:53 UTC
Temperature: 27.8°C (82°F)
Dewpoint: 15.6°C (60°F) [RH = 47%]
Pressure (altimeter): 30.11 inches Hg (1019.7 mb)
[Sea-level pressure: 1019.8 mb]
Winds: variable direction winds at 5 MPH (4 knots; 2.1 m/s)
Visibility: 10 or more miles (16+ km)
Ceiling: at least 12,000 feet AGL
Clouds: sky clear below 12,000 feet AGL
Present Weather: no significant weather observed at this time
KFMY 201653Z VRB04KT 10SM CLR 28/16 A3011 RMK AO2 SLP198 T02780156

Conditions at: KFMY observed 20 April 2018  15:53 UTC
Temperature: 26.1°C (79°F)
Dewpoint: 15.6°C (60°F) [RH = 52%]
Pressure (altimeter): 30.13 inches Hg (1020.4 mb)
[Sea-level pressure: 1020.4 mb]
Winds: variable direction winds at 3 MPH (3 knots; 1.6 m/s)
Visibility: 10 or more miles (16+ km)
Ceiling: at least 12,000 feet AGL
Clouds: sky clear below 12,000 feet AGL
Present Weather: no significant weather observed at this time
KFMY 201553Z VRB03KT 10SM CLR 26/16 A3013 RMK AO2 SLP204 T02610156

Conditions at: KFMY observed 20 April 2018  14:53 UTC
Temperature: 25.0°C (77°F)
Dewpoint: 16.1°C (61°F) [RH = 58%]
Pressure (altimeter): 30.14 inches Hg (1020.7 mb)
[Sea-level pressure: 1020.8 mb]
Winds: from the NNE (20 degrees) at 7 MPH (6 knots; 3.1 m/s)
Visibility: 10 or more miles (16+ km)
Ceiling: at least 12,000 feet AGL
Clouds: few clouds at 4700 feet AGL
Present Weather: no significant weather observed at this time
KFMY 201453Z 02006KT 10SM FEW047 25/16 A3014 RMK AO2 SLP208 T02500161 51013

Conditions at: KFMY observed 20 April 2018  13:53 UTC
Temperature: 23.9°C (75°F)
Dewpoint: 17.8°C (64°F) [RH = 69%]
Pressure (altimeter): 30.13 inches Hg (1020.4 mb)
[Sea-level pressure: 1020.6 mb]
Winds: from the N (360 degrees) at 8 MPH (7 knots; 3.6 m/s)
Visibility: 10 or more miles (16+ km)
Ceiling: 4600 feet AGL
Clouds: overcast cloud deck at 4600 feet AGL
Present Weather: no significant weather observed at this time
KFMY 201353Z 36007KT 10SM OVC046 24/18 A3013 RMK AO2 SLP206 T02390178

Conditions at: KFMY observed 20 April 2018  12:53 UTC
Temperature: 22.2°C (72°F)
Dewpoint: 17.8°C (64°F) [RH = 76%]
Pressure (altimeter): 30.12 inches Hg (1020.1 mb)
[Sea-level pressure: 1020.1 mb]
Winds: from the NNE (20 degrees) at 6 MPH (5 knots; 2.6 m/s)
Visibility: 10 or more miles (16+ km)
Ceiling: at least 12,000 feet AGL
Clouds: sky clear below 12,000 feet AGL
Present Weather: no significant weather observed at this time
KFMY 201253Z 02005KT 10SM CLR 22/18 A3012 RMK AO2 SLP201 T02220178

Conditions at: KFMY observed 20 April 2018  11:53 UTC
Temperature: 20.0°C (68°F)
Dewpoint: 18.3°C (65°F) [RH = 90%]
Pressure (altimeter): 30.10 inches Hg (1019.4 mb)
[Sea-level pressure: 1019.6 mb]
Winds: from the NE (40 degrees) at 5 MPH (4 knots; 2.1 m/s)
Visibility: 9 miles (14 km)
Ceiling: at least 12,000 feet AGL
Clouds: sky clear below 12,000 feet AGL
Present Weather: no significant weather observed at this time
KFMY 201153Z 04004KT 9SM CLR 20/18 A3010 RMK AO2 SLP196 T02000183 10211 20189 53012

Conditions at: KFMY observed 20 April 2018  10:53 UTC
Temperature: 18.9°C (66°F)
Dewpoint: 17.8°C (64°F) [RH = 93%]
Pressure (altimeter): 30.09 inches Hg (1019.0 mb)
[Sea-level pressure: 1019.0 mb]
Winds: from the NNE (20 degrees) at 3 MPH (3 knots; 1.6 m/s)
Visibility: 10 or more miles (16+ km)
Ceiling: at least 12,000 feet AGL
Clouds: sky clear below 12,000 feet AGL
Present Weather: no significant weather observed at this time
KFMY 201053Z 02003KT 10SM CLR 19/18 A3009 RMK AO2 SLP190 T01890178

Conditions at: KFMY observed 20 April 2018  09:53 UTC
Temperature: 19.4°C (67°F)
Dewpoint: 18.3°C (65°F) [RH = 93%]
Pressure (altimeter): 30.08 inches Hg (1018.7 mb)
[Sea-level pressure: 1018.7 mb]
Winds: calm
Visibility: 10 or more miles (16+ km)
Ceiling: at least 12,000 feet AGL
Clouds: sky clear below 12,000 feet AGL
Present Weather: automated observation with no human augmentation;
there may or may not be significant weather present at this time
KFMY 200953Z AUTO 00000KT 10SM CLR 19/18 A3008 RMK AO2 SLP187 T01940183